Time;durP1;ratioP1;P1;durP2;ratioP2;P2;SDS_P1;SDS_P2;PMS_P1;PMS_P2;Temp;Humidity;BMP_temperature;BMP_pressure;BME280_temperature;BME280_humidity;BME280_pressure;Samples;Min_cycle;Max_cycle;Signal;HPM_P1;HPM_P2
2023/04/19 00:03:38;;;;;;;9.30;6.00;;;;;;;9.17;68.99;101073.73;673316;1265;138909;-78
2023/04/19 00:18:42;;;;;;;17.30;6.00;;;;;;;9.02;69.41;101036.20;672189;1264;138427;-76
2023/04/19 00:33:45;;;;;;;17.80;6.70;;;;;;;8.89;69.57;101017.40;672691;1263;139246;-76
2023/04/19 00:48:49;;;;;;;12.60;5.40;;;;;;;8.78;69.97;101003.84;674849;1261;139133;-76
2023/04/19 01:03:52;;;;;;;12.00;5.90;;;;;;;8.73;70.34;100987.22;673265;1276;139642;-77
2023/04/19 01:18:56;;;;;;;15.10;5.70;;;;;;;8.64;70.74;100983.36;673624;1263;138553;-76
2023/04/19 01:33:59;;;;;;;18.10;7.60;;;;;;;8.50;71.33;100965.48;676279;1264;142217;-75
2023/04/19 01:49:03;;;;;;;15.20;7.70;;;;;;;8.41;71.51;100951.55;672446;1261;138687;-80
2023/04/19 02:04:06;;;;;;;8.50;4.80;;;;;;;8.34;72.13;100949.05;672271;1263;138768;-77
2023/04/19 02:19:10;;;;;;;15.80;5.60;;;;;;;8.37;73.17;100932.13;674485;1261;138905;-78
2023/04/19 02:34:13;;;;;;;9.10;5.60;;;;;;;8.60;74.20;100935.64;677686;1263;140048;-77
2023/04/19 02:49:18;;;;;;;13.20;7.40;;;;;;;8.79;75.15;100899.33;672475;1262;138636;-80
2023/04/19 03:04:21;;;;;;;16.50;6.60;;;;;;;8.90;75.58;100858.73;674195;1263;138551;-79
2023/04/19 03:19:25;;;;;;;27.80;12.00;;;;;;;8.74;77.55;100864.73;674934;1260;138789;-78
2023/04/19 03:34:28;;;;;;;16.10;8.20;;;;;;;8.92;77.62;100848.84;675120;1264;138911;-80
2023/04/19 03:49:32;;;;;;;19.50;9.30;;;;;;;9.08;77.60;100831.27;681124;1261;138448;-82
2023/04/19 04:04:39;;;;;;;12.80;7.30;;;;;;;9.20;78.03;100829.22;676105;1260;139626;-78
2023/04/19 04:19:43;;;;;;;14.70;6.40;;;;;;;9.31;78.27;100806.91;676539;1262;138588;-81
2023/04/19 04:34:47;;;;;;;18.50;11.10;;;;;;;9.34;78.44;100803.34;677703;1263;138505;-84
2023/04/19 04:49:58;;;;;;;32.40;17.60;;;;;;;9.30;79.01;100809.60;673350;1259;139482;-81
2023/04/19 05:05:02;;;;;;;26.30;12.60;;;;;;;9.35;79.00;100804.17;674790;1263;139047;-81
2023/04/19 05:20:06;;;;;;;17.40;8.20;;;;;;;9.35;78.78;100797.56;673099;1259;139179;-80
2023/04/19 05:35:11;;;;;;;16.50;8.90;;;;;;;9.38;78.71;100780.05;674661;1261;138894;-82
2023/04/19 05:50:16;;;;;;;33.20;16.60;;;;;;;9.44;78.75;100769.42;674656;1261;138154;-81
2023/04/19 06:05:25;;;;;;;24.10;10.20;;;;;;;9.50;79.18;100755.05;672090;1259;138756;-82
2023/04/19 06:20:31;;;;;;;39.50;18.20;;;;;;;9.66;79.08;100749.29;671248;1262;138348;-78
2023/04/19 06:35:34;;;;;;;49.90;22.90;;;;;;;9.86;79.37;100728.85;676336;1262;139100;-80
2023/04/19 06:50:37;;;;;;;28.30;14.30;;;;;;;9.94;79.63;100737.39;671594;1262;139050;-82
2023/04/19 07:05:40;;;;;;;34.80;26.50;;;;;;;10.03;80.30;100734.05;674249;1263;139043;-80
2023/04/19 07:20:47;;;;;;;52.60;34.90;;;;;;;10.11;81.94;100729.52;673521;1262;139055;-81
2023/04/19 07:35:51;;;;;;;38.60;19.50;;;;;;;10.25;82.83;100729.31;677050;1260;139227;-81
2023/04/19 07:50:54;;;;;;;28.10;15.70;;;;;;;10.94;82.95;100716.56;678047;1263;139395;-81
2023/04/19 08:05:59;;;;;;;43.90;22.20;;;;;;;11.70;80.45;100734.29;676174;1276;139387;-83
2023/04/19 08:21:03;;;;;;;17.30;10.50;;;;;;;11.35;79.17;100741.45;676728;1260;139289;-83
2023/04/19 08:36:07;;;;;;;24.70;15.20;;;;;;;11.50;79.25;100739.64;674916;1263;139072;-85
2023/04/19 08:51:13;;;;;;;37.50;21.60;;;;;;;11.86;78.01;100731.31;673853;1261;139313;-83
2023/04/19 09:06:17;;;;;;;15.30;8.70;;;;;;;12.17;76.45;100722.73;676664;1275;140045;-82
2023/04/19 09:21:28;;;;;;;7.70;4.90;;;;;;;11.92;74.19;100716.62;674570;1262;139071;-82
2023/04/19 09:36:32;;;;;;;15.50;9.50;;;;;;;12.32;73.50;100711.71;673448;1262;137727;-80
2023/04/19 09:51:49;;;;;;;120.90;80.50;;;;;;;12.08;72.40;100737.34;673521;1265;139216;-83
2023/04/19 10:06:53;;;;;;;31.90;16.70;;;;;;;11.53;73.88;100745.56;673248;1262;139494;-82
2023/04/19 10:22:17;;;;;;;30.50;18.40;;;;;;;11.60;74.59;100750.71;670936;1263;138840;-82
2023/04/19 10:37:23;;;;;;;23.90;11.10;;;;;;;11.58;75.32;100749.98;672671;1261;138717;-80
2023/04/19 10:52:28;;;;;;;24.50;14.00;;;;;;;11.53;76.51;100745.86;673632;1263;139234;-81
2023/04/19 11:07:38;;;;;;;20.80;12.30;;;;;;;12.14;76.75;100743.48;674417;1262;138963;-81
2023/04/19 11:22:45;;;;;;;29.20;16.00;;;;;;;12.16;76.82;100752.41;674195;1259;163298;-81
2023/04/19 11:37:49;;;;;;;26.20;14.70;;;;;;;12.52;76.71;100761.27;676182;1262;138886;-81
2023/04/19 11:52:52;;;;;;;23.30;13.30;;;;;;;13.13;75.93;100755.98;674619;1264;139077;-82
2023/04/19 12:08:03;;;;;;;18.20;9.40;;;;;;;13.19;75.03;100763.23;672468;1262;139026;-82
2023/04/19 12:23:09;;;;;;;15.90;9.40;;;;;;;13.22;74.57;100783.22;672275;1262;139541;-81
2023/04/19 12:38:13;;;;;;;13.30;8.60;;;;;;;13.11;74.73;100786.86;672539;1260;139332;-80
2023/04/19 12:53:16;;;;;;;25.10;13.80;;;;;;;13.13;75.31;100793.58;671829;1263;141006;-81
2023/04/19 13:08:20;;;;;;;21.40;11.70;;;;;;;12.96;75.91;100782.95;671261;1263;139468;-82
2023/04/19 13:23:43;;;;;;;23.30;14.80;;;;;;;12.83;76.55;100785.34;670717;1262;139651;-81
2023/04/19 13:38:48;;;;;;;25.00;16.00;;;;;;;12.65;77.64;100802.39;669647;1263;139441;-84
2023/04/19 13:53:53;;;;;;;36.40;22.60;;;;;;;12.66;78.29;100804.71;672819;1260;139240;-83
2023/04/19 14:08:57;;;;;;;31.20;18.90;;;;;;;12.89;78.30;100792.00;671436;1273;139152;-81
2023/04/19 14:24:02;;;;;;;31.60;18.10;;;;;;;13.37;78.34;100799.84;671067;1260;139164;-81
2023/04/19 14:39:07;;;;;;;31.40;19.60;;;;;;;13.90;77.40;100791.98;671303;1262;139119;-82
2023/04/19 14:54:11;;;;;;;30.30;17.10;;;;;;;14.19;77.24;100780.41;669566;1259;139899;-82
2023/04/19 15:09:16;;;;;;;27.60;16.10;;;;;;;15.19;75.91;100773.43;671442;1262;139751;-80
2023/04/19 15:24:21;;;;;;;103.10;52.90;;;;;;;20.89;68.39;100770.41;671670;1263;139821;-79
2023/04/19 15:39:25;;;;;;;61.40;37.20;;;;;;;22.66;60.19;100759.47;673595;1263;139633;-81
2023/04/19 15:54:30;;;;;;;31.90;19.10;;;;;;;20.14;61.05;100748.27;673035;1262;138628;-80
2023/04/19 16:09:34;;;;;;;26.80;15.80;;;;;;;19.05;63.90;100738.81;672108;1263;139128;-77
2023/04/19 16:24:37;;;;;;;80.30;45.70;;;;;;;18.92;65.29;100746.30;672450;1262;139341;-79
2023/04/19 16:39:40;;;;;;;39.70;23.60;;;;;;;17.83;66.33;100748.71;674978;1262;141276;-79
2023/04/19 16:54:44;;;;;;;55.60;29.30;;;;;;;17.36;67.59;100749.06;676855;1263;139528;-79
2023/04/19 17:09:47;;;;;;;57.10;32.20;;;;;;;16.82;69.50;100758.77;676281;1263;139723;-80
2023/04/19 17:24:50;;;;;;;53.50;28.60;;;;;;;16.47;70.35;100795.98;678980;1263;140916;-81
2023/04/19 17:39:54;;;;;;;16.10;10.10;;;;;;;15.42;73.11;100837.05;675931;1271;139705;-80
2023/04/19 17:54:57;;;;;;;43.00;23.20;;;;;;;14.53;77.48;100867.44;675614;1263;139180;-87
2023/04/19 18:10:02;;;;;;;31.20;20.90;;;;;;;13.92;82.19;100905.98;675408;1263;139858;-86
2023/04/19 18:25:06;;;;;;;119.30;61.40;;;;;;;13.79;83.77;100863.66;676896;1260;139435;-86
2023/04/19 18:40:10;;;;;;;157.70;85.30;;;;;;;13.92;83.20;100824.15;674916;1263;139494;-82
2023/04/19 18:55:14;;;;;;;30.60;16.80;;;;;;;13.60;84.80;100860.63;677630;1264;139917;-80
2023/04/19 19:10:19;;;;;;;36.30;22.60;;;;;;;13.46;85.53;100885.64;676853;1261;140365;-81
2023/04/19 19:25:28;;;;;;;87.90;41.90;;;;;;;13.47;86.28;100878.29;679000;1264;139513;-80
2023/04/19 19:40:34;;;;;;;111.70;52.00;;;;;;;13.66;85.75;100869.06;679666;1262;139495;-80
2023/04/19 19:55:59;;;;;;;147.10;60.30;;;;;;;13.66;85.42;100867.06;679446;1264;139832;-81
2023/04/19 20:11:02;;;;;;;218.00;89.70;;;;;;;13.59;85.53;100879.19;679747;1259;140147;-81
2023/04/19 20:26:06;;;;;;;95.70;45.40;;;;;;;13.48;85.80;100877.48;681942;1263;139540;-79
2023/04/19 20:41:10;;;;;;;133.00;61.70;;;;;;;13.52;85.52;100871.77;681095;1261;141095;-80
2023/04/19 20:56:15;;;;;;;164.80;68.80;;;;;;;13.37;86.18;100879.54;681545;1263;140707;-79
2023/04/19 21:11:19;;;;;;;26.40;17.20;;;;;;;13.28;86.58;100895.83;680956;1264;141067;-79
2023/04/19 21:26:22;;;;;;;96.60;48.20;;;;;;;13.29;86.86;100899.92;682079;1263;140106;-80
2023/04/19 21:41:26;;;;;;;20.10;12.70;;;;;;;13.20;87.51;100909.34;680929;1262;140032;-79
2023/04/19 21:56:29;;;;;;;16.80;11.30;;;;;;;13.05;88.31;100917.84;680396;1262;139711;-79
2023/04/19 22:11:35;;;;;;;18.60;12.60;;;;;;;13.05;88.47;100924.49;682096;1262;140425;-79
2023/04/19 22:26:38;;;;;;;18.40;10.60;;;;;;;13.04;88.76;100920.41;679100;1259;139900;-80
2023/04/19 22:41:41;;;;;;;24.30;13.60;;;;;;;13.16;88.55;100916.74;681336;1273;140641;-80
2023/04/19 22:56:44;;;;;;;25.40;15.30;;;;;;;13.27;88.26;100907.64;679262;1262;139670;-80
2023/04/19 23:11:47;;;;;;;26.30;15.30;;;;;;;13.25;88.02;100906.27;680764;1258;140205;-78
2023/04/19 23:26:51;;;;;;;58.10;29.00;;;;;;;13.17;87.93;100909.09;680013;1259;222408;-80
2023/04/19 23:41:54;;;;;;;41.20;21.40;;;;;;;13.10;88.00;100902.27;674883;1258;140339;-80
2023/04/19 23:56:58;;;;;;;32.80;19.80;;;;;;;13.07;88.36;100881.52;677008;1262;139352;-79
